This is the latest recevied weather packets stored in our database for station/object DK6GC-10. If no packets are shown the sender has not sent any weather packets the latest 10 day(s).
| Time | Temp. | Humidity | Pressure | Rain* | Wind** | Luminosity | Snow |
|---|---|---|---|---|---|---|---|
| 1787555716 | 18.89° C | 54% | 1021.2 hPa | - | - | - | - |
| 1787554816 | 18.89° C | 53% | 1021.2 hPa | - | - | - | - |
| 1787553916 | 17.22° C | 57% | 1021.1 hPa | - | - | - | - |
| 1787553016 | 25° C | 39% | 1021.1 hPa | - | - | - | - |
| 1787552115 | 18.33° C | 56% | 1021 hPa | - | - | - | - |
| 1787546726 | 13.89° C | 67% | 1021 hPa | - | - | - | - |
| 1787545826 | 12.22° C | 74% | 1021.2 hPa | - | - | - | - |
| 1787544926 | 12.78° C | 72% | 1021.3 hPa | - | - | - | - |
| 1787544026 | 13.33° C | 70% | 1021.4 hPa | - | - | - | - |
| 1787543125 | 13.33° C | 68% | 1021.3 hPa | - | - | - | - |
| 1787542225 | 13.89° C | 66% | 1021.4 hPa | - | - | - | - |
| 1787541325 | 14.44° C | 61% | 1021.7 hPa | - | - | - | - |
| 1787540425 | 13.33° C | 68% | 1021.9 hPa | - | - | - | - |
| 1787539525 | 13.33° C | 68% | 1022 hPa | - | - | - | - |
| 1787538625 | 13.33° C | 69% | 1022.1 hPa | - | - | - | - |
| 1787537724 | 13.33° C | 69% | 1022.1 hPa | - | - | - | - |
| 1787536824 | 13.33° C | 68% | 1022.2 hPa | - | - | - | - |
| 1787535924 | 13.89° C | 67% | 1022.2 hPa | - | - | - | - |
| 1787535023 | 13.89° C | 68% | 1022.1 hPa | - | - | - | - |
| 1787534123 | 13.89° C | 68% | 1022.2 hPa | - | - | - | - |
| 1787533223 | 14.44° C | 65% | 1022.2 hPa | - | - | - | - |
| 1787532322 | 13.89° C | 65% | 1022.2 hPa | - | - | - | - |
| 1787531422 | 13.89° C | 66% | 1022.2 hPa | - | - | - | - |
| 1787530522 | 13.89° C | 66% | 1022.3 hPa | - | - | - | - |
| 1787529628 | 14.44° C | 65% | 1022.6 hPa | - | - | - | - |
* Rain since midnight (hover to see other rain measurements)
** Current wind speed in m/s (hover to see current wind gust speed)